Last 365 Observations

Pierce College

Daily Data | America/Los_Angeles
as of 2/7/23 8:14 PM PST
Date Daily Max Temp (°F) Time of Max Temp Daily Min Temp (°F) Time of Min Temp Daily Rain (In) Month Precip (In) Season Precip (In) Daily ETo (in) Daily Solar Rad (Cal/cm2) Daily Max Wind (mph) Max Wind Dir (°) Time of Max Wind Dew Pt (°F) Max RH (%) Min RH (%) Daily Leaf Wet Hrs (hrs) Max Pressure (mb) (mb) Time of Max Press Min pressure (mb) (mb) Time of Min Press Evap Pan Level (In) Evap Pan Max Wind (mph) Evap Pan H2O Max Temp (°F) Evap Pan H2O Min Temp (°F) Evap Pan WindRun (miles) Storm Total (In) Max 1 Min Rain (In) Max 1 Min Rain Time Max 10 Min Rain (In) Max 10 Min Rain Time Max 60 Min Rain (In) Max 60 Min Rain Time
2/6/23 67.4 1328 42.7 0649 0.00 0.03 15.65 0.096 357 13.6 WSW | 258 0415 26.2 59 17 0.0 1,026.0 1001 1,022.0 1550 7.6 9.6 102.4 52.2 18.0 - - - - - - -
2/5/23 66.0 1332 47.7 2110 0.03 0.03 15.65 0.091 336 14.7 WSW | 250 1647 43.6 93 42 8.5 1,024.0 0933 1,020.0 1536 7.7 10.0 114.9 61.3 35.0 - 0.01 0435 0.02 0419 0.03 0509
2/4/23 75.8 1302 36.0 0635 0.00 0.00 15.62 0.093 332 8.6 W | 272 1502 36.1 86 19 3.2 1,023.0 2326 1,019.0 1455 7.8 6.3 100.1 48.0 12.2 - - - - - - -
2/3/23 73.8 1418 39.4 0438 0.00 0.00 15.62 0.083 300 6.8 SSW | 207 1842 30.5 75 13 0.0 1,025.0 1023 1,020.0 1546 7.9 5.2 101.7 51.9 6.6 - - - - - - -
2/2/23 71.0 1438 33.2 0611 0.00 0.00 15.62 0.072 284 6.2 SW | 236 2103 27.1 72 13 0.0 1,028.0 0954 1,024.0 0033 8.0 4.4 94.3 46.6 2.1 - - - - - - -
2/1/23 70.0 1435 39.4 2352 0.00 0.00 15.62 0.097 339 14.4 SSW | 203 1152 15.7 58 11 0.0 1,024.0 2352 1,019.0 0413 8.1 6.3 99.1 48.0 9.2 - - - - - - -
1/31/23 61.4 1520 48.2 0220 0.00 9.81 15.62 0.116 347 16.2 N | 6 0857 8.0 34 8 0.0 1,022.0 0958 1,016.0 0148 8.2 7.9 89.9 50.1 21.2 0.31 - - - - - -
1/30/23 57.3 1210 42.0 2105 0.16 9.81 15.62 0.044 145 13.4 N | 4 2312 38.1 93 32 11.0 1,017.0 2337 1,013.0 0057 8.4 5.4 77.8 55.8 5.3 0.31 0.01 1423 0.05 0118 0.07 0610
1/29/23 55.7 1020 45.3 2347 0.15 9.65 15.46 0.049 195 13.4 SW | 233 1450 41.4 92 51 4.2 1,015.0 0032 1,011.0 1455 8.3 8.7 84.8 60.0 26.6 0.15 0.01 2301 0.03 2158 0.09 2235
1/28/23 64.2 1342 34.2 0529 0.00 9.50 15.31 0.074 312 8.1 SE | 138 1549 38.0 86 38 4.0 1,018.0 0942 1,014.0 1433 8.2 4.8 97.1 46.8 6.1 - - - - - - -
1/27/23 73.5 1411 34.6 0711 0.00 9.50 15.31 0.082 325 7.8 SW | 225 1522 27.2 73 13 0.0 1,027.0 0009 1,016.0 2144 8.3 5.9 99.9 47.5 4.0 - - - - - - -
1/26/23 68.6 1323 48.9 0001 0.00 9.50 15.31 0.115 322 16.8 NNE | 24 1343 18.9 34 13 0.0 1,030.0 0858 1,025.0 0001 8.4 8.5 102.0 57.2 23.1 - - - - - - -
1/25/23 72.4 1237 33.2 0658 0.00 9.50 15.31 0.090 315 14.8 NNE | 24 1455 23.8 71 15 0.0 1,027.0 1008 1,023.0 1522 8.6 7.1 92.8 46.9 7.6 - - - - - - -
1/24/23 72.7 1429 35.6 0655 0.00 9.50 15.31 0.077 317 7.5 NNE | 19 1447 23.5 61 12 0.0 1,028.0 1013 1,022.0 0010 8.7 5.5 91.8 46.9 4.8 - - - - - - -
1/23/23 64.0 1502 42.5 2356 0.00 9.50 15.31 0.090 316 16.8 NNW | 347 0032 15.6 45 14 0.0 1,022.0 2358 1,015.0 0017 8.8 8.8 84.1 48.4 15.0 - - - - - - -
1/22/23 66.0 1348 31.1 0539 0.00 9.50 15.31 0.068 277 11.4 N | 7 1439 25.4 78 20 0.0 1,023.0 0003 1,012.0 1532 9.0 8.0 76.1 46.7 9.6 - - - - - - -
1/21/23 67.8 1259 35.4 0054 0.00 9.50 15.31 0.077 310 9.0 W | 267 1427 24.8 90 15 1.9 1,028.0 1021 1,023.0 2352 9.1 6.6 85.0 47.0 8.8 - - - - - - -
1/20/23 65.2 1249 36.9 2349 0.01 9.50 15.31 0.079 307 11.2 NNE | 22 1020 26.1 90 16 3.9 1,026.0 0001 1,020.0 0016 9.2 7.3 80.2 48.9 12.2 - 0.01 1132 0.01 1141 0.01 1231
1/19/23 59.4 1155 33.0 0641 0.07 9.49 15.30 0.048 195 8.5 E | 94 1227 36.8 94 44 12.7 1,023.0 0153 1,017.0 1553 9.3 5.3 69.1 46.8 8.2 - 0.01 1743 0.03 1707 0.07 1751
1/18/23 62.9 1317 32.0 0551 0.00 9.42 15.23 0.060 269 5.3 NW | 307 1655 34.2 92 31 11.3 1,023.0 1022 1,018.0 0001 9.2 4.9 73.5 46.0 5.4 - - - - - - -
1/17/23 60.7 1250 34.6 0656 0.00 9.42 15.23 0.066 288 9.8 NE | 34 1601 33.1 94 31 8.8 1,018.0 0001 1,011.0 0326 9.3 6.2 76.4 47.4 10.7 - - - - - - -
1/16/23 57.6 1323 41.2 2301 0.31 9.42 15.23 0.053 199 14.3 WSW | 252 1648 43.5 94 58 10.8 1,011.0 2303 1,005.0 0327 9.9 10.1 81.4 55.3 46.3 2.06 0.01 0759 0.03 0600 0.13 0129
1/15/23 58.1 1159 45.6 0728 0.39 9.11 14.92 0.034 117 9.6 ENE | 77 2300 45.8 94 56 17.8 1,013.0 0935 1,007.0 2349 10.0 5.9 71.2 55.6 16.3 1.75 0.01 2357 0.03 1746 0.10 1819
1/14/23 51.8 2134 45.4 0559 1.36 8.72 14.53 0.007 23 4.9 E | 91 1238 46.7 96 80 20.4 1,019.0 0009 1,010.0 1949 9.9 2.7 65.0 57.2 1.1 1.36 0.01 1908 0.07 1651 0.32 1237
1/13/23 67.2 1433 41.1 0700 0.00 7.36 13.17 0.040 160 6.0 W | 262 1055 39.9 88 32 11.0 1,023.0 1053 1,019.0 2333 9.1 4.2 76.3 52.0 2.7 - - - - - - -
1/12/23 69.0 1305 41.0 0628 0.00 7.36 13.17 0.051 196 7.8 N | 2 1147 39.6 94 28 9.2 1,025.0 0933 1,021.0 1634 9.2 2.7 79.6 52.1 1.8 - - - - - - -
1/11/23 63.9 1240 39.4 0556 0.00 7.36 13.17 0.041 176 5.3 W | 260 1644 43.3 96 50 16.1 1,026.0 0947 1,021.0 0218 9.3 3.8 72.6 52.2 4.3 - - - - - - -
1/10/23 58.6 0910 45.0 2134 1.07 7.36 13.17 0.036 115 16.8 WSW | 241 1426 48.1 96 65 15.0 1,022.0 2352 1,015.0 0714 9.3 11.3 76.5 58.6 40.3 4.14 0.03 0923 0.14 0924 0.36 0202
1/9/23 57.8 2036 48.8 0643 3.09 6.29 12.10 0.010 29 12.8 SE | 126 2101 50.1 95 84 24.0 1,022.0 0015 1,016.0 1829 8.5 8.8 70.2 61.1 14.4 3.07 0.03 2227 0.16 1857 0.46 1857
1/8/23 67.4 1328 39.5 0349 0.00 3.20 9.01 0.048 172 7.1 SSW | 194 2257 39.6 91 27 7.8 1,024.0 0913 1,020.0 1529 5.7 5.0 83.6 49.3 8.7 - - - - - - -
1/7/23 67.3 1158 38.4 0437 0.00 3.20 9.01 0.044 177 4.8 ESE | 106 1229 38.1 91 28 11.9 1,023.0 1034 1,020.0 1416 5.8 3.5 80.2 46.9 1.6 5.05 - - - - - -
1/6/23 69.8 1454 37.1 0625 0.01 3.20 9.01 0.063 270 8.7 WSW | 253 1411 39.7 96 27 15.1 1,025.0 1011 1,022.0 1630 5.8 6.1 86.6 47.3 7.2 5.05 0.01 1223 0.01 1232 0.01 1322
1/5/23 62.3 1238 42.6 2343 1.93 3.19 9.00 0.052 187 20.1 SW | 230 1450 47.6 94 56 16.5 1,024.0 2327 1,015.0 0750 5.9 11.9 98.3 57.1 39.0 5.04 0.02 0838 0.12 0840 0.36 0340
1/4/23 59.3 1232 53.6 2237 0.96 1.26 7.07 0.023 79 12.2 SE | 146 1603 53.4 95 83 24.0 1,021.0 0912 1,017.0 1455 4.2 7.4 90.1 66.0 18.6 3.11 0.02 1348 0.04 1348 0.13 1221
1/3/23 54.8 1447 46.9 0001 0.23 0.30 6.11 0.019 72 7.4 ENE | 68 1258 49.0 94 89 24.0 1,020.0 2359 1,016.0 0039 3.8 4.4 77.2 56.2 3.2 2.15 0.01 2335 0.01 2344 0.03 0942
1/2/23 55.7 1208 37.3 0411 0.06 0.07 5.88 0.028 102 7.2 S | 169 1550 39.0 91 42 16.8 1,018.0 2154 1,012.0 0001 3.8 4.2 67.1 43.6 5.5 1.92 0.01 2329 0.02 1652 0.04 1742
1/1/23 62.0 1358 40.0 2345 0.01 0.01 5.82 0.064 248 16.4 WSW | 247 1218 44.1 92 50 15.7 1,013.0 2333 1,006.0 0009 3.8 11.8 109.9 49.4 45.4 1.86 0.01 1427 0.01 1436 0.08 0001
12/31/22 58.7 1402 54.3 0619 1.30 4.20 5.81 0.023 66 16.1 ESE | 109 2056 52.8 93 81 22.7 1,019.0 0001 1,006.0 2324 3.8 11.0 95.6 66.5 32.3 1.85 0.01 2354 0.08 2249 0.32 2028
12/30/22 57.3 1322 50.4 0137 0.07 2.90 4.51 0.017 58 3.8 ESE | 107 0942 51.2 94 79 22.2 1,021.0 1017 1,018.0 0115 3.8 2.2 91.9 61.0 0.8 0.55 0.01 2324 0.02 1157 0.03 1247
12/29/22 56.8 1341 49.2 2133 0.03 2.83 4.44 0.014 44 6.6 ENE | 78 1359 48.4 93 61 20.2 1,019.0 2320 1,014.0 0127 3.8 4.1 80.8 59.0 1.6 0.48 0.01 1637 0.01 1646 0.02 1721
12/28/22 63.5 1441 44.8 0707 0.01 2.80 4.41 0.043 182 5.6 SSW | 212 0005 47.7 96 52 14.9 1,017.0 2200 1,012.0 0539 3.8 3.8 109.5 53.9 3.6 0.45 0.01 0726 0.01 0735 0.03 0013
12/27/22 63.2 1133 47.8 0644 0.44 2.79 4.40 0.022 74 8.0 WSW | 242 2336 45.2 93 46 11.0 1,020.0 0011 1,012.0 2354 3.8 5.1 101.4 54.0 2.6 0.44 0.01 2344 0.03 2001 0.10 2002
12/26/22 83.6 1401 43.2 0700 0.00 2.35 3.96 0.048 178 4.9 WSW | 252 1018 36.5 70 17 0.0 1,022.0 0004 1,017.0 1534 3.8 3.8 145.9 45.1 1.1 - - - - - - -
12/25/22 85.2 1532 44.2 0443 0.00 2.35 3.96 0.067 232 7.5 SSW | 196 1419 33.7 63 15 0.0 1,025.0 0958 1,020.0 1959 3.8 6.0 146.4 46.2 6.3 - - - - - - -
12/24/22 81.8 1420 43.8 0235 0.00 2.35 3.96 0.075 261 12.0 NNE | 28 1232 31.4 64 15 0.0 1,026.0 0938 1,022.0 0105 3.8 6.5 139.7 47.6 9.6 - - - - - - -
12/23/22 76.6 1340 37.3 0711 0.00 2.35 3.96 0.061 245 4.2 SSW | 194 2102 39.1 89 28 6.1 1,023.0 2307 1,019.0 0344 3.8 3.8 143.4 40.1 2.8 - - - - - - -
12/22/22 72.7 1240 39.0 0659 0.00 2.35 3.96 0.045 182 3.4 NE | 44 1203 34.4 75 21 0.0 1,020.0 0001 1,017.0 1519 3.8 2.4 113.1 41.5 0.8 - - - - - - -
12/21/22 78.4 1320 44.6 2343 0.00 2.35 3.96 0.075 260 8.8 SSW | 206 0718 25.1 59 14 0.0 1,022.0 0958 1,018.0 1413 3.8 8.4 163.7 51.0 15.6 - - - - - - -
12/20/22 72.4 1408 34.1 0715 0.00 2.35 3.96 0.058 259 8.7 SW | 236 1307 29.1 81 17 0.0 1,026.0 0917 1,021.0 1515 3.8 5.8 137.5 43.2 16.6 - - - - - - -
12/19/22 67.8 1321 29.9 0511 0.00 2.35 3.96 0.059 265 7.4 W | 272 1713 28.8 93 16 8.9 1,026.0 2239 1,020.0 0012 3.8 5.3 113.4 43.2 4.6 - - - - - - -
12/18/22 69.6 1302 29.8 0658 0.00 2.35 3.96 0.062 266 7.5 SE | 134 1400 27.3 80 16 0.2 1,021.0 0001 1,015.0 0357 3.8 5.4 121.4 42.8 7.2 - - - - - - -
12/17/22 65.8 1227 33.3 0515 0.00 2.35 3.96 0.046 177 4.4 SW | 233 1033 22.8 65 15 0.0 1,020.0 0010 1,015.0 1558 3.8 4.1 98.9 41.3 3.8 - - - - - - -
12/16/22 66.5 1237 40.6 0001 0.00 2.35 3.96 0.061 222 11.4 NNE | 17 1500 25.1 71 18 0.0 1,022.0 0945 1,018.0 1630 3.8 5.9 153.6 50.6 10.1 - - - - - - -
12/15/22 62.5 1047 34.7 0634 0.00 2.35 3.96 0.039 157 5.9 SE | 137 1215 34.2 93 27 8.4 1,023.0 0006 1,019.0 1317 3.8 4.2 99.4 50.8 3.8 - - - - - - -
12/14/22 64.3 1421 31.1 0608 0.00 2.35 3.96 0.056 257 7.1 WSW | 242 1642 33.2 96 27 9.9 1,024.0 0920 1,020.0 1438 3.8 6.3 112.4 50.5 9.3 - - - - - - -
12/13/22 62.5 1421 32.6 0617 0.00 2.35 3.96 0.059 264 8.1 S | 188 1539 33.9 95 26 12.0 1,022.0 2251 1,015.0 0115 3.8 5.8 120.6 51.4 9.8 1.78 - - - - - -
12/12/22 60.4 1441 35.2 0013 0.18 2.35 3.96 0.038 185 5.9 WNW | 282 1804 37.6 95 38 13.9 1,016.0 2242 1,011.0 0445 3.8 5.5 105.4 56.8 7.1 1.78 0.01 1540 0.04 0254 0.08 0637
12/11/22 57.2 1345 35.9 0001 1.43 2.17 3.78 0.058 205 17.4 SW | 231 1350 42.5 92 35 13.2 1,016.0 0001 1,012.0 1435 3.8 12.5 - - 69.9 1.60 0.02 0520 0.08 0521 0.27 0521
12/10/22 59.5 1312 37.5 0333 0.17 0.74 2.35 0.032 117 10.3 SE | 135 2153 44.7 95 61 14.6 1,022.0 0923 1,016.0 2359 3.8 6.4 - - 12.8 0.17 0.01 2348 0.04 2341 0.11 0001
12/9/22 67.1 1310 35.6 0527 0.01 0.57 2.18 0.061 262 8.2 E | 98 1422 38.3 96 29 14.1 1,023.0 0002 1,019.0 1416 3.8 4.6 - - 5.4 - 0.01 0507 0.01 0516 0.01 0606
12/8/22 65.6 1359 34.3 0635 0.00 0.56 2.17 0.061 265 7.4 S | 180 1555 37.0 96 22 10.6 1,027.0 0948 1,023.0 1518 3.8 6.0 - - 14.7 - - - - - - -
12/7/22 61.4 1243 38.6 0700 0.01 0.56 2.17 0.054 227 7.9 SE | 125 1355 40.3 96 43 14.0 1,026.0 2340 1,019.0 0014 3.8 5.1 - - 10.5 - 0.01 0117 0.01 0126 0.01 0216
12/6/22 61.6 1414 41.5 2357 0.00 0.55 2.16 0.038 159 5.7 SW | 236 1730 43.0 94 50 13.8 1,020.0 2358 1,017.0 1410 3.8 4.3 - - 7.2 - - - - - - -
12/5/22 63.9 1307 44.3 2357 0.00 0.55 2.16 0.054 225 8.4 S | 176 1354 45.2 95 40 13.2 1,019.0 0930 1,015.0 1522 3.8 6.4 - - 12.4 0.55 - - - - - -
12/4/22 59.8 1519 49.2 0131 0.02 0.55 2.16 0.020 71 4.8 ENE | 69 1533 51.7 94 78 20.2 1,022.0 1014 1,018.0 1715 3.8 2.9 - - 1.2 0.55 0.01 1745 0.01 1754 0.01 1844
12/3/22 72.5 1505 45.9 0702 0.01 0.53 2.14 0.060 236 6.8 SW | 233 1617 49.4 95 44 14.6 1,021.0 0924 1,017.0 1415 3.8 5.9 - - 6.6 0.53 0.01 0323 0.01 0332 0.01 0422
12/2/22 55.1 1511 49.3 0415 0.47 0.52 2.13 0.018 68 5.6 ESE | 102 1058 50.1 95 88 24.0 1,022.0 0951 1,019.0 0001 3.8 4.2 - - 1.9 0.52 0.01 2049 0.02 2038 0.08 0403
12/1/22 57.1 1407 49.1 0316 0.05 0.05 1.66 0.020 62 7.5 SSW | 196 1521 43.2 91 56 3.9 1,020.0 2237 1,016.0 0032 3.8 6.2 - - 8.8 - 0.01 2354 0.02 2227 0.04 2317
11/30/22 62.3 1311 40.6 0255 0.00 1.45 1.61 0.047 188 9.6 SSW | 209 1349 43.4 94 47 7.7 1,019.0 0947 1,015.0 1512 3.8 8.1 - - 12.3 - - - - - - -
11/29/22 65.4 1320 39.9 0659 0.00 1.45 1.61 0.063 266 7.9 S | 169 1443 41.4 94 37 12.3 1,017.0 2359 1,013.0 0040 3.8 6.5 - - 6.3 - - - - - - -
11/28/22 64.3 1216 45.4 2321 0.00 1.45 1.61 0.056 207 8.3 SSW | 201 1450 43.5 90 51 2.7 1,017.0 0008 1,012.0 1524 3.8 6.4 - - 14.2 - - - - - - -
11/27/22 76.9 1320 37.5 0645 0.00 1.45 1.61 0.073 278 6.8 SW | 230 1439 34.4 94 16 6.2 1,020.0 0842 1,016.0 1459 3.8 4.9 - - 5.9 - - - - - - -
11/26/22 76.4 1421 37.7 0541 0.00 1.45 1.61 0.071 282 5.6 SW | 222 1451 27.0 80 13 0.0 1,023.0 0004 1,016.0 1554 3.8 4.0 - - 5.3 - - - - - - -
11/25/22 78.2 1405 43.9 0650 0.00 1.45 1.61 0.078 286 9.4 N | 354 1335 14.6 39 6 0.0 1,027.0 0729 1,022.0 1545 3.8 5.2 - - 11.1 - - - - - - -
11/24/22 75.9 1227 44.2 0232 0.00 1.45 1.61 0.114 300 17.2 S | 184 1246 6.7 46 5 0.0 1,026.0 2359 1,019.0 0016 3.8 8.4 - - 21.5 - - - - - - -
11/23/22 78.5 1345 37.8 0621 0.00 1.45 1.61 0.072 288 5.2 SE | 139 1109 23.0 56 8 0.0 1,020.0 0949 1,017.0 1336 3.8 3.6 - - 5.9 - - - - - - -
11/22/22 78.7 1402 36.7 0650 0.00 1.45 1.61 0.075 301 7.5 NNE | 19 1536 14.9 49 5 0.0 1,021.0 0909 1,017.0 1420 3.8 5.4 - - 8.8 - - - - - - -
11/21/22 77.7 1333 36.8 0620 0.00 1.45 1.61 0.065 260 5.8 NNE | 15 1519 15.0 49 6 0.0 1,022.0 0932 1,018.0 1532 3.8 3.8 126.9 25.5 3.3 - - - - - - -
11/20/22 75.5 1221 40.3 0645 0.00 1.45 1.61 0.082 308 11.8 NE | 36 1249 12.1 37 7 0.0 1,024.0 0915 1,020.0 1621 3.8 7.5 101.7 49.4 9.7 - - - - - - -
11/19/22 68.4 1356 48.3 2317 0.00 1.45 1.61 0.113 312 17.9 NNE | 23 0845 10.7 39 10 0.0 1,022.0 2359 1,017.0 0120 3.8 8.2 90.9 55.2 26.4 - - - - - - -
11/18/22 75.2 1419 35.6 0615 0.00 1.45 1.61 0.077 301 5.7 ENE | 66 1058 26.5 69 12 0.0 1,018.0 0004 1,013.0 1408 3.8 3.8 102.1 52.4 5.8 - - - - - - -
11/17/22 77.0 1205 43.1 2350 0.00 1.45 1.61 0.083 304 10.6 NNE | 20 1516 16.6 48 8 0.0 1,025.0 0010 1,018.0 0001 3.8 7.2 124.9 57.6 12.2 - - - - - - -
11/16/22 70.4 1315 52.6 2359 0.00 1.45 1.61 0.129 322 17.1 NNE | 16 0935 6.2 22 6 0.0 1,027.0 0953 1,023.0 0001 3.8 8.0 88.6 56.5 30.4 - - - - - - -
11/15/22 74.7 1226 36.5 0635 0.00 1.45 1.61 0.091 314 12.5 N | 4 1422 23.4 75 13 0.0 1,023.0 2315 1,018.0 1225 3.8 8.4 74.9 33.5 11.5 - - - - - - -
11/14/22 73.8 1401 36.5 0545 0.00 1.45 1.61 0.081 316 9.1 SE | 141 1425 28.3 75 15 0.0 1,022.0 0849 1,018.0 1505 3.8 4.9 74.7 25.6 8.8 - - - - - - -
11/13/22 68.4 1325 38.1 0422 0.00 1.45 1.61 0.080 320 10.9 NNE | 16 0801 32.3 89 19 5.1 1,020.0 2331 1,016.0 1425 3.8 11.5 88.0 12.2 20.9 - - - - - - -
11/12/22 70.5 1243 35.1 0641 0.00 1.45 1.61 0.088 323 10.5 WSW | 252 1347 28.5 75 16 0.0 1,020.0 0854 1,016.0 1506 3.8 7.6 73.2 - 15.4 - - - - - - -
11/11/22 72.8 1238 39.5 0309 0.00 1.45 1.61 0.078 296 9.7 N | 354 1541 23.5 66 12 0.0 1,021.0 0907 1,017.0 1621 3.8 5.9 36.3 - 8.4 - - - - - - -
11/10/22 70.2 1255 38.3 0332 0.00 1.45 1.61 0.084 330 10.1 NNW | 330 1549 31.3 85 21 4.4 1,022.0 0024 1,018.0 1514 3.8 8.8 35.3 - 9.4 - - - - - - -
11/9/22 64.3 1504 42.7 2354 0.01 1.45 1.61 0.072 305 9.1 N | 9 1550 41.0 96 32 11.3 1,022.0 2237 1,013.0 0002 3.8 5.7 29.4 14.8 13.0 1.31 0.01 1216 0.01 1225 0.01 1315
11/8/22 61.6 0946 47.8 2358 1.22 1.44 1.60 0.045 144 20.3 SSW | 203 1438 49.2 94 67 20.1 1,015.0 0025 1,007.0 1422 3.8 15.8 68.5 20.4 39.3 1.30 0.03 1433 0.17 1435 0.32 0557
11/7/22 60.6 1215 50.2 2259 0.08 0.22 0.38 0.027 96 12.2 SSW | 196 1607 52.7 93 74 20.8 1,016.0 0945 1,013.0 1629 3.8 9.2 67.2 44.4 16.1 - 0.01 1939 0.02 0136 0.03 0156
11/6/22 73.4 1253 43.1 0631 0.00 0.14 0.30 0.089 322 18.1 WSW | 237 1259 43.6 87 34 0.5 1,015.0 2359 1,011.0 1523 3.8 17.5 80.4 33.8 18.5 - - - - - - -
11/5/22 76.2 1356 39.4 0718 0.00 0.14 0.30 0.089 337 7.1 ESE | 120 1444 34.8 76 22 0.0 1,022.0 0101 1,014.0 1735 3.8 4.0 81.4 29.1 6.6 - - - - - - -
11/4/22 73.9 1405 40.2 0227 0.00 0.14 0.30 0.094 332 10.4 WSW | 254 1433 24.5 65 13 0.0 1,027.0 0858 1,022.0 0056 3.8 8.5 76.0 28.8 19.4 - - - - - - -
11/3/22 62.9 1357 40.8 0725 0.00 0.14 0.30 0.084 341 12.0 NNW | 336 1241 31.8 82 25 0.4 1,024.0 0018 1,016.0 0442 3.8 9.0 60.7 30.3 22.0 - - - - - - -
11/2/22 69.2 1329 50.2 0058 0.14 0.14 0.30 0.080 264 14.9 WSW | 245 1451 44.9 93 30 7.8 1,018.0 0928 1,015.0 1543 3.8 11.4 67.8 42.9 44.6 0.14 0.01 0544 0.03 0339 0.09 0411
11/1/22 72.8 1342 51.7 0514 0.00 0.00 0.16 0.086 302 10.0 SW | 214 1610 49.4 89 47 1.4 1,016.0 0007 1,012.0 1500 3.8 7.5 84.6 40.8 18.0 - - - - - - -
10/31/22 85.3 1304 46.5 0705 0.00 0.00 0.16 0.083 260 6.6 WSW | 258 1527 28.4 50 10 0.0 1,015.0 0101 1,011.0 1749 3.8 5.5 95.7 34.0 9.7 - - - - - - -
10/30/22 88.8 1408 45.5 0704 0.00 0.00 0.16 0.105 349 9.4 N | 0 1623 27.1 53 7 0.0 1,018.0 0834 1,013.0 1543 3.8 5.3 92.5 34.0 8.8 - - - - - - -
10/29/22 84.4 1355 43.5 0716 0.00 0.00 0.16 0.111 354 11.4 NNW | 345 1508 29.8 84 7 0.1 1,021.0 0153 1,017.0 1625 3.8 7.2 89.7 33.6 16.3 - - - - - - -
10/28/22 81.3 1415 44.7 0654 0.00 0.00 0.16 0.100 324 7.6 W | 272 1758 35.8 75 12 0.0 1,022.0 0942 1,019.0 1512 3.8 7.1 93.0 32.5 14.2 - - - - - - -
10/27/22 80.0 1529 46.1 0401 0.00 0.00 0.16 0.098 350 8.2 SW | 217 1955 43.7 88 17 0.1 1,019.0 0101 1,015.0 0418 3.8 5.9 85.7 35.5 15.8 - - - - - - -
10/26/22 79.4 1328 44.5 0636 0.00 0.00 0.16 0.101 346 10.3 WSW | 253 1541 39.0 78 20 0.0 1,017.0 0858 1,012.0 1659 3.8 7.6 87.3 34.5 16.9 - - - - - - -
10/25/22 81.1 1459 43.5 0718 0.00 0.00 0.16 0.107 362 8.1 SSE | 153 1423 29.0 56 13 0.0 1,022.0 0133 1,015.0 1718 3.8 6.1 87.3 31.9 12.4 - - - - - - -
10/24/22 79.8 1519 49.4 0101 0.00 0.00 0.16 0.117 377 15.8 NNE | 24 1004 16.8 53 6 0.0 1,022.0 2341 1,017.0 0113 3.8 8.9 84.2 36.9 24.2 - - - - - - -
10/23/22 76.6 1421 50.7 0723 0.00 0.00 0.16 0.112 379 10.7 SW | 234 1632 36.3 92 11 3.4 1,018.0 0050 1,009.0 0101 3.8 10.4 81.8 40.6 21.8 - - - - - - -
10/22/22 70.0 1306 58.8 0059 0.00 0.00 0.16 0.087 274 12.2 SW | 221 1443 52.9 83 52 0.0 1,013.0 0148 1,008.0 1723 3.8 10.5 83.5 54.5 37.7 - - - - - - -
10/21/22 85.0 1446 55.0 0700 0.00 0.00 0.16 0.111 360 7.5 SSW | 213 1551 53.0 88 35 0.1 1,015.0 0853 1,010.0 1645 3.8 5.7 95.2 46.3 14.7 - - - - - - -
10/20/22 93.8 1412 58.7 0727 0.00 0.00 0.16 0.122 348 9.8 SSW | 194 1532 42.9 60 15 0.0 1,017.0 0905 1,012.0 1603 3.8 7.4 102.4 49.9 18.0 - - - - - - -
10/19/22 95.2 1458 56.2 0710 0.00 0.00 0.16 0.127 369 10.4 WSW | 255 1708 44.0 70 14 0.0 1,019.0 0927 1,014.0 1611 3.8 7.6 103.0 46.9 17.7 - - - - - - -
10/18/22 96.1 1358 55.0 0654 0.00 0.00 0.16 0.137 375 10.1 SW | 216 1631 48.9 90 16 2.9 1,018.0 0850 1,014.0 1448 3.8 7.5 105.6 46.5 24.8 - - - - - - -
10/17/22 89.0 1437 51.9 0707 0.00 0.00 0.16 0.116 378 9.1 WSW | 243 1438 52.6 93 27 6.4 1,019.0 0838 1,013.0 1652 3.8 7.1 97.9 42.6 13.9 - - - - - - -
10/16/22 77.4 1540 54.5 0651 0.00 0.00 0.16 0.091 311 8.0 SW | 233 1510 54.0 92 45 3.5 1,019.0 2210 1,014.0 0101 3.8 6.5 94.9 45.7 19.4 - - - - - - -
10/15/22 69.3 1413 61.6 0020 0.00 0.00 0.16 0.041 96 7.9 WSW | 252 1354 56.5 82 63 0.0 1,016.0 2223 1,011.0 0351 3.8 6.8 85.6 57.1 24.6 - - - - - - -
10/14/22 78.8 1530 61.9 0139 0.00 0.00 0.16 0.073 238 8.0 SE | 129 1649 57.5 88 49 0.6 1,014.0 0119 1,009.0 1643 3.8 5.1 88.6 61.0 18.8 - - - - - - -
10/13/22 85.8 1513 62.2 0017 0.00 0.00 0.16 0.111 360 5.7 SE | 125 1611 57.9 86 37 0.0 1,018.0 0144 1,013.0 1600 3.8 5.0 95.5 60.0 15.4 - - - - - - -
10/12/22 89.0 1522 59.7 0342 0.00 0.00 0.16 0.110 351 11.0 S | 172 1110 56.9 87 23 2.2 1,021.0 1044 1,016.0 1529 3.8 9.3 100.1 53.9 18.5 - - - - - - -
10/11/22 82.9 1510 59.3 0209 0.00 0.00 0.16 0.099 309 9.5 SE | 143 2027 57.5 88 41 0.1 1,019.0 2101 1,014.0 1627 3.8 6.3 98.5 54.2 22.5 - - - - - - -
10/10/22 84.6 1517 57.3 0629 0.00 0.00 0.16 0.095 310 6.0 WSW | 253 1415 57.0 92 41 2.3 1,018.0 1001 1,012.0 1741 3.8 5.0 93.0 48.6 9.4 - - - - - - -
10/9/22 89.7 1517 58.2 0702 0.00 0.00 0.16 0.125 400 6.4 E | 84 1354 56.8 92 28 3.2 1,019.0 0856 1,014.0 1640 3.8 6.0 99.7 50.5 9.8 - - - - - - -
10/8/22 93.6 1422 58.7 0643 0.00 0.00 0.16 0.135 400 10.2 W | 277 1555 57.0 92 20 4.9 1,020.0 0838 1,015.0 1525 3.8 7.2 105.8 50.5 16.2 - - - - - - -
10/7/22 94.6 1453 59.4 0612 0.00 0.00 0.16 0.127 397 5.7 W | 281 1217 58.9 91 27 0.9 1,019.0 0836 1,015.0 1555 3.8 4.4 103.1 52.6 12.9 - - - - - - -
10/6/22 88.7 1435 63.6 0705 0.00 0.00 0.16 0.129 407 6.4 SE | 143 1512 59.8 85 39 0.0 1,020.0 2335 1,015.0 1634 3.8 4.1 100.4 60.9 15.2 - - - - - - -
10/5/22 92.8 1431 57.5 0647 0.00 0.00 0.16 0.136 422 6.3 E | 101 1357 58.3 90 32 3.0 1,018.0 0058 1,013.0 1652 3.8 4.5 106.1 48.9 10.4 - - - - - - -
10/4/22 94.7 1516 57.0 0658 0.00 0.00 0.16 0.138 429 6.2 E | 84 1409 56.3 91 19 3.2 1,016.0 0059 1,012.0 1607 3.8 5.7 108.3 48.2 9.7 - - - - - - -
10/3/22 92.6 1410 56.5 0650 0.00 0.00 0.16 0.142 436 10.4 WSW | 249 1549 54.0 91 27 3.4 1,017.0 0824 1,013.0 1605 3.8 8.2 106.2 48.8 21.3 - - - - - - -
10/2/22 89.2 1516 60.7 0102 0.00 0.00 0.16 0.126 388 9.0 WSW | 256 1646 55.0 84 28 0.2 1,017.0 0945 1,012.0 1645 3.8 7.6 96.6 52.9 25.6 - - - - - - -
10/1/22 83.1 1525 58.4 0018 0.00 0.00 0.16 0.134 430 9.3 SSW | 201 1542 54.8 87 36 0.0 1,014.0 0001 1,010.0 1657 3.8 6.9 94.4 50.1 25.5 - - - - - - -
9/30/22 85.4 1430 59.0 0346 0.00 0.16 0.16 0.135 425 8.2 NE | 45 1448 56.7 90 26 2.9 1,014.0 0910 1,010.0 1736 3.8 5.0 98.8 51.8 14.3 - - - - - - -
9/29/22 99.2 1525 60.8 0625 0.00 0.16 0.16 0.149 444 7.8 W | 262 1528 54.9 84 23 0.0 1,017.0 0933 1,012.0 1633 3.8 7.5 115.5 51.5 14.2 - - - - - - -
9/28/22 104.9 1520 63.7 0618 0.00 0.16 0.16 0.152 442 11.0 NW | 310 1502 53.5 70 15 0.0 1,017.0 0006 1,013.0 1429 3.8 9.4 118.5 54.6 12.4 - - - - - - -
9/27/22 106.7 1505 63.3 0636 0.00 0.16 0.16 0.157 448 9.4 WSW | 240 1654 51.8 71 11 0.0 1,014.0 0030 1,010.0 1613 3.8 7.3 123.7 54.5 15.0 - - - - - - -
9/26/22 104.4 1434 62.6 0649 0.00 0.16 0.16 0.159 454 11.4 W | 261 1355 48.5 60 18 0.0 1,015.0 0810 1,011.0 1655 3.8 11.6 123.7 54.0 21.2 - - - - - - -
9/25/22 101.9 1434 61.6 0644 0.00 0.16 0.16 0.164 460 10.0 WSW | 252 1511 40.9 51 11 0.0 1,018.0 0917 1,013.0 1646 3.8 7.9 123.9 53.2 27.3 - - - - - - -
9/24/22 99.5 1428 60.3 0626 0.00 0.16 0.16 0.157 460 9.8 W | 259 1530 43.6 65 15 0.0 1,018.0 1014 1,015.0 1629 3.8 7.5 122.1 52.0 21.3 - - - - - - -
9/23/22 95.8 1339 53.4 0642 0.00 0.16 0.16 0.166 485 10.1 SE | 136 1429 43.5 86 6 0.2 1,016.0 0012 1,012.0 1559 3.8 7.4 115.7 41.9 16.8 - - - - - - -
9/22/22 93.1 1505 51.7 0613 0.00 0.16 0.16 0.160 500 8.6 SE | 137 1519 43.3 89 6 4.6 1,016.0 0813 1,012.0 1600 3.8 7.7 117.6 41.9 16.8 - - - - - - -
9/21/22 83.9 1452 55.6 0605 0.00 0.16 0.16 0.167 501 13.0 WSW | 237 1503 49.8 90 21 5.1 1,016.0 0847 1,012.0 1626 3.8 9.7 110.6 46.9 46.0 - - - - - - -
9/20/22 83.4 1518 57.3 0507 0.00 0.16 0.16 0.127 379 11.4 W | 262 1810 55.3 90 38 3.5 1,015.0 0953 1,012.0 1720 3.8 9.0 103.3 49.1 38.9 - - - - - - -
9/19/22 81.7 1629 53.7 0635 0.00 0.16 0.16 0.155 494 11.0 WSW | 254 1534 53.8 92 37 4.5 1,013.0 0059 1,010.0 1524 3.8 8.6 108.6 43.8 31.4 - - - - - - -
9/18/22 76.6 1216 58.1 0059 0.00 0.16 0.16 0.133 424 11.2 SSW | 204 1412 54.5 82 43 0.0 1,012.0 0101 1,009.0 0207 3.8 9.2 110.3 49.2 27.4 - - - - - - -
9/17/22 78.7 1515 57.0 0658 0.00 0.16 0.16 0.099 313 9.3 SE | 135 1640 56.0 90 46 2.0 1,013.0 0939 1,008.0 1715 3.8 7.1 96.6 49.1 16.2 - - - - - - -
9/16/22 85.6 1335 56.1 0542 0.00 0.16 0.16 0.156 494 11.0 SE | 134 1354 54.3 88 30 0.0 1,016.0 0923 1,011.0 1842 3.8 7.9 117.2 46.4 21.2 - - - - - - -
9/15/22 85.9 1457 58.5 0452 0.00 0.16 0.16 0.143 438 10.5 SSW | 205 1506 55.4 88 36 0.0 1,017.0 0936 1,012.0 1722 3.8 9.2 113.0 48.9 24.1 - - - - - - -
9/14/22 84.5 1333 59.6 0539 0.00 0.16 0.16 0.160 497 11.1 SE | 127 1335 55.5 83 40 0.0 1,014.0 0951 1,011.0 1515 3.8 8.2 106.5 52.7 24.1 - - - - - - -
9/13/22 85.8 1454 64.3 0659 0.00 0.16 0.16 0.167 486 11.1 S | 190 1401 56.7 82 33 0.0 1,014.0 0953 1,010.0 1707 3.8 7.9 114.4 57.6 18.7 - - - - - - -
9/12/22 87.8 1541 67.8 0620 0.00 0.16 0.16 0.141 387 13.0 WSW | 252 1820 61.8 84 43 0.3 1,017.0 0901 1,012.0 1635 3.8 8.9 115.7 61.4 28.6 - - - - - - -
9/11/22 92.3 1327 73.1 0101 0.00 0.16 0.16 0.151 411 11.0 W | 261 1709 65.1 78 39 0.0 1,018.0 1008 1,014.0 1648 3.8 7.1 100.3 68.9 23.7 - - - - - - -
9/10/22 82.0 1454 68.4 0413 0.01 0.16 0.16 0.069 175 7.7 SSW | 206 1540 65.3 90 56 4.7 1,016.0 0054 1,009.0 0212 3.8 4.9 90.1 67.4 12.2 0.16 0.01 0114 0.01 0123 0.03 0125
9/9/22 99.0 1344 69.1 0042 0.15 0.15 0.15 0.129 286 13.5 NE | 50 1542 61.1 90 29 6.1 1,009.0 0059 1,002.0 1404 3.8 8.5 125.4 64.4 15.8 0.15 0.01 0050 0.02 2237 0.05 2318
9/8/22 99.7 1625 71.7 0647 0.00 0.00 0.00 0.119 267 9.6 W | 265 1847 58.4 64 25 0.1 1,014.0 0120 1,003.0 0009 3.8 6.7 121.4 64.4 20.1 - - - - - - -
9/7/22 107.8 1412 71.7 0624 0.00 0.00 0.00 0.183 483 12.1 SE | 146 1550 58.6 71 17 0.0 1,016.0 0956 1,012.0 1621 3.8 7.9 139.6 66.4 12.8 - - - - - - -
9/6/22 109.4 1511 70.8 0558 0.00 0.00 0.00 0.189 487 10.1 SE | 146 1532 61.5 73 15 0.0 1,015.0 0101 1,010.0 0140 3.8 8.0 147.7 65.8 12.6 - - - - - - -
9/5/22 110.5 1350 73.0 0556 0.00 0.00 0.00 0.197 491 10.5 SSE | 166 1454 60.9 69 16 0.0 1,011.0 0900 1,007.0 1626 3.8 7.8 146.8 67.7 16.0 - - - - - - -
9/4/22 112.0 1400 74.8 0507 0.00 0.00 0.00 0.198 478 13.5 W | 261 1733 57.5 53 15 0.0 1,014.0 0654 1,009.0 1529 3.8 8.6 156.6 69.0 19.0 - - - - - - -
9/3/22 110.6 1425 71.8 0531 0.00 0.00 0.00 0.197 480 12.8 WSW | 248 1621 58.2 62 21 0.0 1,013.0 0036 1,010.0 1513 3.8 7.4 146.1 66.2 18.0 - - - - - - -
9/2/22 105.7 1402 69.3 0551 0.00 0.00 0.00 0.193 492 11.4 S | 186 1423 58.4 71 20 0.1 1,012.0 0044 1,007.0 1717 3.8 7.2 136.4 62.0 15.4 - - - - - - -
9/1/22 109.4 1421 74.4 0044 0.00 0.00 0.00 0.194 509 7.1 SE | 128 1543 52.3 59 15 0.0 1,010.0 0846 1,006.0 1717 3.8 4.3 139.3 67.9 5.2 - - - - - - -
8/31/22 112.3 1314 66.2 0557 0.00 0.00 0.00 0.240 536 13.5 W | 278 1449 45.7 47 9 0.0 1,013.0 0104 1,009.0 2308 3.8 9.3 154.1 59.4 36.1 - - - - - - -
8/30/22 108.2 1427 61.2 0543 0.00 0.00 0.00 0.203 537 11.4 W | 259 1754 49.4 79 12 0.0 1,016.0 0803 1,012.0 1647 3.8 7.7 151.9 53.0 22.8 - - - - - - -
8/29/22 97.6 1513 60.4 0631 0.00 0.00 0.00 0.185 531 11.1 WSW | 255 1645 55.7 87 21 0.8 1,015.0 0101 1,011.0 1805 3.8 7.8 127.6 54.5 19.2 - - - - - - -
8/28/22 89.9 1437 63.4 0247 0.00 0.00 0.00 0.178 520 8.3 S | 178 1625 58.3 85 35 0.2 1,013.0 0840 1,008.0 1749 3.8 5.6 128.5 58.1 20.9 - - - - - - -
8/27/22 92.0 1701 61.8 0633 0.00 0.00 0.00 0.180 532 11.5 WSW | 241 1646 57.8 85 29 0.4 1,014.0 0158 1,009.0 1652 3.8 6.5 127.0 55.0 12.1 - - - - - - -
8/26/22 98.4 1458 62.7 0644 0.00 0.00 0.00 0.186 538 7.9 WSW | 246 1755 56.1 83 22 0.3 1,016.0 0119 1,011.0 1709 3.8 6.1 140.4 56.1 10.4 - - - - - - -
8/25/22 97.0 1532 65.4 0625 0.00 0.00 0.00 0.196 530 9.0 E | 92 1235 56.1 81 15 0.0 1,016.0 0928 1,013.0 1657 3.8 5.6 143.7 59.2 15.4 - - - - - - -
8/24/22 94.9 1357 63.3 0624 0.00 0.00 0.00 0.193 534 10.3 ESE | 103 1702 58.8 87 21 0.4 1,015.0 0047 1,010.0 1612 3.8 6.7 140.4 56.3 14.2 - - - - - - -
8/23/22 102.7 1547 61.6 0630 0.00 0.00 0.00 0.189 536 7.1 SE | 131 1429 58.6 85 22 0.5 1,013.0 0111 1,007.0 1625 3.8 4.3 140.7 54.2 7.0 - - - - - - -
8/22/22 94.3 1549 62.8 0600 0.00 0.00 0.00 0.176 525 6.4 ENE | 68 1607 59.7 88 33 0.2 1,018.0 0754 1,011.0 1842 3.8 4.4 134.7 56.3 9.4 - - - - - - -
8/21/22 91.0 1640 62.6 0357 0.00 0.00 0.00 0.157 467 10.0 ESE | 120 1112 60.1 88 36 0.0 1,019.0 1020 1,014.0 1754 3.8 5.5 133.4 57.6 10.0 - - - - - - -
8/20/22 89.8 1439 62.4 0641 0.00 0.00 0.00 0.182 535 8.2 ESE | 120 1513 59.3 81 34 0.0 1,015.0 0039 1,010.0 0148 3.8 5.3 131.1 56.0 11.4 - - - - - - -
8/19/22 99.9 1623 60.8 0615 0.00 0.00 0.00 0.188 532 6.9 ESE | 106 1504 53.3 76 22 0.0 1,013.0 0121 1,007.0 1703 3.8 4.9 140.5 53.0 7.2 - - - - - - -
8/18/22 98.0 1556 63.3 0626 0.00 0.00 0.00 0.191 541 8.4 SE | 128 1508 51.9 70 19 0.0 1,015.0 0725 1,010.0 1659 3.8 4.5 144.5 55.8 8.0 - - - - - - -
8/17/22 102.2 1548 65.0 0618 0.00 0.00 0.00 0.195 510 10.7 WSW | 257 1642 49.4 62 10 0.0 1,015.0 0057 1,011.0 1613 3.8 8.4 146.9 57.4 14.4 - - - - - - -
8/16/22 103.9 1509 63.3 0550 0.00 0.00 0.00 0.196 533 11.0 SW | 217 1616 49.7 64 13 0.0 1,013.0 0059 1,008.0 1634 3.8 7.6 152.3 54.0 11.9 - - - - - - -
8/15/22 102.0 1351 62.9 0555 0.00 0.00 0.00 0.202 553 9.3 SE | 145 1529 48.4 62 15 0.0 1,013.0 0117 1,009.0 1555 3.8 7.2 148.8 54.2 14.3 - - - - - - -
8/14/22 103.2 1426 62.8 0612 0.00 0.00 0.00 0.199 554 10.3 WSW | 240 1437 46.6 60 10 0.0 1,015.0 0808 1,011.0 1752 3.8 6.3 144.3 53.1 11.1 - - - - - - -
8/13/22 104.4 1607 63.8 0620 0.00 0.00 0.00 0.206 558 8.6 SW | 219 1612 46.1 69 6 0.0 1,016.0 2333 1,012.0 1746 3.8 5.9 139.1 55.6 12.2 - - - - - - -
8/12/22 105.3 1533 62.3 0537 0.00 0.00 0.00 0.199 564 10.8 W | 266 1543 47.5 74 9 0.0 1,016.0 0846 1,012.0 1626 3.8 6.9 157.0 54.0 13.3 - - - - - - -
8/11/22 103.6 1347 63.8 0555 0.00 0.00 0.00 0.207 568 12.1 W | 280 1533 42.1 56 9 0.0 1,018.0 0826 1,013.0 1832 3.8 8.4 153.0 56.3 18.0 - - - - - - -
8/10/22 100.3 1613 66.0 0613 0.00 0.00 0.00 0.210 563 10.9 SW | 231 1530 44.7 54 8 0.0 1,018.0 0911 1,014.0 1610 3.8 8.2 151.1 57.7 18.6 - - - - - - -
8/9/22 100.4 1419 69.3 0517 0.00 0.00 0.00 0.199 529 10.9 SSW | 197 1525 47.6 61 9 0.0 1,016.0 0008 1,012.0 1710 3.8 7.6 143.3 63.0 18.4 - - - - - - -
8/8/22 99.7 1447 66.0 0615 0.00 0.00 0.00 0.201 553 9.0 S | 191 1543 53.8 66 20 0.0 1,016.0 0839 1,012.0 1651 3.8 5.9 138.3 59.2 12.8 - - - - - - -
8/7/22 105.2 1356 60.3 0623 0.00 0.00 0.00 0.213 572 10.4 SSW | 195 1537 47.5 70 9 0.0 1,015.0 0846 1,012.0 1648 3.8 7.4 150.3 51.7 11.6 - - - - - - -
8/6/22 101.5 1357 62.7 0612 0.00 0.00 0.00 0.226 575 15.1 WSW | 250 1522 50.6 75 11 0.0 1,016.0 0833 1,011.0 1742 3.8 9.6 155.4 55.3 27.6 - - - - - - -
8/5/22 98.7 1443 68.2 0611 0.00 0.00 0.00 0.190 525 11.6 SW | 227 1502 56.5 66 25 0.0 1,016.0 0849 1,012.0 1830 3.8 7.5 147.2 61.5 23.5 - - - - - - -
8/4/22 91.0 1356 66.6 0538 0.00 0.00 0.00 0.158 410 8.5 W | 267 1820 56.8 76 26 0.0 1,015.0 0751 1,012.0 1728 3.8 5.7 137.9 61.9 14.9 - - - - - - -
8/3/22 96.0 1502 66.2 0618 0.00 0.00 0.00 0.194 540 9.0 SSW | 202 1535 55.1 71 24 0.0 1,016.0 0814 1,011.0 1811 3.8 5.7 145.6 60.5 11.9 - - - - - - -
8/2/22 99.1 1329 64.6 0544 0.00 0.00 0.00 0.208 554 13.8 WNW | 282 1639 54.0 80 17 0.0 1,018.0 0831 1,014.0 1755 3.8 10.0 152.8 59.6 23.3 - - - - - - -
8/1/22 100.6 1400 67.1 0629 0.00 0.00 0.00 0.190 512 10.8 WSW | 241 1457 51.5 71 22 0.0 1,018.0 0116 1,014.0 1707 3.8 7.2 147.6 62.1 15.7 - - - - - - -
7/31/22 98.3 1628 68.3 0558 0.00 0.00 0.00 0.155 412 8.9 SSE | 149 1729 50.2 60 17 0.1 1,018.0 0036 1,014.0 1546 3.8 5.2 135.1 65.2 11.0 - - - - - - -
7/30/22 96.0 1538 64.4 0607 0.00 0.00 0.00 0.139 370 8.7 SE | 137 1721 54.3 70 23 0.0 1,017.0 0014 1,012.0 1615 3.8 5.6 123.5 60.0 12.7 - - - - - - -
7/29/22 98.4 1440 61.8 0618 0.00 0.00 0.00 0.201 556 9.1 SW | 227 1645 52.7 76 17 0.0 1,015.0 0048 1,011.0 1544 3.8 6.3 137.9 55.5 13.0 - - - - - - -
7/28/22 93.6 1446 61.4 0615 0.00 0.00 0.00 0.177 509 8.2 SE | 142 1416 49.9 81 13 0.0 1,015.0 0103 1,011.0 1753 3.8 6.0 138.2 55.5 10.0 - - - - - - -
7/27/22 97.5 1623 58.4 0535 0.00 0.00 0.00 0.194 575 12.0 NNE | 12 1611 54.6 87 12 0.0 1,017.0 0821 1,012.0 1823 3.8 7.8 144.0 52.8 10.4 - - - - - - -
7/26/22 95.4 1605 62.0 0425 0.00 0.00 0.00 0.198 578 6.6 WSW | 237 1936 56.5 87 21 0.1 1,016.0 0030 1,012.0 1556 3.8 4.4 144.7 59.4 11.6 - - - - - - -
7/25/22 94.6 1530 62.1 0315 0.00 0.00 0.00 0.203 579 9.4 SW | 225 1559 58.1 88 30 0.1 1,015.0 0943 1,011.0 1657 3.8 5.7 137.9 58.4 17.6 - - - - - - -
7/24/22 95.0 1614 62.2 0332 0.00 0.00 0.00 0.182 532 8.3 W | 273 1746 59.5 86 33 0.7 1,015.0 2216 1,010.0 1618 3.8 5.9 139.8 56.0 10.5 - - - - - - -
7/23/22 95.5 1555 63.9 0414 0.00 0.00 0.00 0.197 578 9.7 W | 262 1646 58.8 84 27 0.4 1,014.0 1032 1,010.0 1636 3.8 7.4 137.9 56.7 12.5 - - - - - - -
7/22/22 95.9 1541 60.5 0618 0.00 0.00 0.00 0.200 582 8.4 SSE | 154 1653 55.3 85 22 0.0 1,014.0 0901 1,009.0 1826 3.8 5.9 139.5 53.1 10.6 - - - - - - -
7/21/22 99.1 1518 62.1 0610 0.00 0.00 0.00 0.209 570 8.9 SSE | 154 1753 49.9 67 17 0.0 1,017.0 0542 1,012.0 1825 3.8 5.4 146.9 53.7 14.0 - - - - - - -
7/20/22 100.5 1640 64.2 0624 0.00 0.00 0.00 0.197 549 9.9 WSW | 245 1725 47.0 63 10 0.0 1,019.0 1009 1,015.0 1807 3.8 7.0 135.8 57.0 11.8 - - - - - - -
7/19/22 102.9 1527 64.2 0559 0.00 0.00 0.00 0.207 579 7.7 E | 92 1210 44.8 66 7 0.0 1,017.0 0848 1,014.0 1733 3.8 7.1 156.9 57.2 15.6 - - - - - - -
7/18/22 100.9 1550 68.2 0619 0.00 0.00 0.00 0.210 570 11.4 SW | 234 1542 56.4 69 17 0.0 1,017.0 0057 1,013.0 0130 3.8 8.1 148.3 62.2 14.4 - - - - - - -
7/17/22 103.3 1319 65.8 0548 0.00 0.00 0.00 0.209 565 12.7 S | 185 1434 55.4 73 14 0.0 1,014.0 2238 1,010.0 1557 3.8 7.3 - - 14.1 - - - - - - -
7/16/22 102.8 1547 65.0 0532 0.00 0.00 0.00 0.207 567 7.0 E | 101 1319 58.2 77 23 0.0 1,015.0 0101 1,010.0 1800 3.8 4.2 147.4 59.8 5.1 - - - - - - -
7/15/22 101.5 1606 63.2 0541 0.00 0.00 0.00 0.204 568 6.4 ENE | 58 1404 58.6 77 27 0.0 1,016.0 0908 1,012.0 1642 3.8 3.9 148.2 58.5 6.4 - - - - - - -
7/14/22 92.2 1315 59.7 0604 0.00 0.00 0.00 0.198 571 10.5 WSW | 239 1553 55.4 83 29 0.0 1,016.0 2222 1,012.0 1552 3.8 13.6 152.8 54.5 10.1 - - - - - - -
7/13/22 95.6 1606 55.9 0551 0.00 0.00 0.00 0.207 594 9.4 WSW | 237 1843 53.2 90 20 0.0 1,016.0 0902 1,011.0 1750 3.8 7.2 150.0 47.5 15.6 - - - - - - -
7/12/22 91.8 1505 57.4 0520 0.00 0.00 0.00 0.198 604 10.6 E | 98 1634 54.9 90 26 0.0 1,015.0 1018 1,011.0